sensor_id;sensor_type;location;lat;lon;timestamp;P1;durP1;ratioP1;P2;durP2;ratioP2
14235;SDS011;7202;50.718;7.072;2023-03-11T00:00:47;9.57;;;2.00;;
14235;SDS011;7202;50.718;7.072;2023-03-11T00:03:18;8.45;;;1.63;;
14235;SDS011;7202;50.718;7.072;2023-03-11T00:05:49;9.82;;;1.58;;
14235;SDS011;7202;50.718;7.072;2023-03-11T00:08:20;9.38;;;1.85;;
14235;SDS011;7202;50.718;7.072;2023-03-11T00:10:51;4.90;;;1.42;;
14235;SDS011;7202;50.718;7.072;2023-03-11T00:13:21;6.93;;;1.90;;
14235;SDS011;7202;50.718;7.072;2023-03-11T00:15:50;6.93;;;1.58;;
14235;SDS011;7202;50.718;7.072;2023-03-11T00:18:23;12.57;;;1.90;;
14235;SDS011;7202;50.718;7.072;2023-03-11T00:20:53;6.32;;;1.70;;
14235;SDS011;7202;50.718;7.072;2023-03-11T00:23:23;9.18;;;1.85;;
14235;SDS011;7202;50.718;7.072;2023-03-11T00:25:53;10.73;;;2.15;;
14235;SDS011;7202;50.718;7.072;2023-03-11T00:28:22;5.45;;;1.75;;
14235;SDS011;7202;50.718;7.072;2023-03-11T00:30:53;9.70;;;1.52;;
14235;SDS011;7202;50.718;7.072;2023-03-11T00:33:24;6.20;;;1.45;;
14235;SDS011;7202;50.718;7.072;2023-03-11T00:35:53;6.35;;;1.70;;
14235;SDS011;7202;50.718;7.072;2023-03-11T00:38:23;11.75;;;2.03;;
14235;SDS011;7202;50.718;7.072;2023-03-11T00:40:52;4.65;;;1.38;;
14235;SDS011;7202;50.718;7.072;2023-03-11T00:43:22;7.25;;;1.75;;
14235;SDS011;7202;50.718;7.072;2023-03-11T00:45:51;6.68;;;1.77;;
14235;SDS011;7202;50.718;7.072;2023-03-11T00:48:20;4.07;;;1.98;;
14235;SDS011;7202;50.718;7.072;2023-03-11T00:50:50;4.43;;;1.45;;
14235;SDS011;7202;50.718;7.072;2023-03-11T00:53:18;7.63;;;2.20;;
14235;SDS011;7202;50.718;7.072;2023-03-11T00:55:47;9.30;;;1.90;;
14235;SDS011;7202;50.718;7.072;2023-03-11T00:58:16;3.13;;;1.40;;
14235;SDS011;7202;50.718;7.072;2023-03-11T01:00:47;7.80;;;1.85;;
14235;SDS011;7202;50.718;7.072;2023-03-11T01:03:16;6.07;;;1.67;;
14235;SDS011;7202;50.718;7.072;2023-03-11T01:05:45;7.13;;;1.65;;
14235;SDS011;7202;50.718;7.072;2023-03-11T01:08:15;7.95;;;2.60;;
14235;SDS011;7202;50.718;7.072;2023-03-11T01:10:43;9.13;;;2.03;;
14235;SDS011;7202;50.718;7.072;2023-03-11T01:13:12;3.38;;;1.70;;
14235;SDS011;7202;50.718;7.072;2023-03-11T01:15:41;4.78;;;1.40;;
14235;SDS011;7202;50.718;7.072;2023-03-11T01:18:09;4.10;;;1.80;;
14235;SDS011;7202;50.718;7.072;2023-03-11T01:20:38;9.60;;;1.67;;
14235;SDS011;7202;50.718;7.072;2023-03-11T01:23:07;7.18;;;1.90;;
14235;SDS011;7202;50.718;7.072;2023-03-11T01:25:38;9.00;;;1.85;;
14235;SDS011;7202;50.718;7.072;2023-03-11T01:28:06;5.22;;;1.45;;
14235;SDS011;7202;50.718;7.072;2023-03-11T01:30:36;4.72;;;1.38;;
14235;SDS011;7202;50.718;7.072;2023-03-11T01:33:06;5.97;;;1.67;;
14235;SDS011;7202;50.718;7.072;2023-03-11T01:35:38;3.35;;;1.30;;
14235;SDS011;7202;50.718;7.072;2023-03-11T01:38:08;3.47;;;1.45;;
14235;SDS011;7202;50.718;7.072;2023-03-11T01:40:39;5.60;;;1.33;;
14235;SDS011;7202;50.718;7.072;2023-03-11T01:46:27;7.68;;;1.60;;
14235;SDS011;7202;50.718;7.072;2023-03-11T01:48:58;6.63;;;1.67;;
14235;SDS011;7202;50.718;7.072;2023-03-11T01:51:31;7.85;;;1.50;;
14235;SDS011;7202;50.718;7.072;2023-03-11T01:54:04;9.40;;;1.95;;
14235;SDS011;7202;50.718;7.072;2023-03-11T01:56:38;6.30;;;1.40;;
14235;SDS011;7202;50.718;7.072;2023-03-11T01:59:09;5.75;;;1.88;;
14235;SDS011;7202;50.718;7.072;2023-03-11T02:01:40;4.82;;;1.48;;
14235;SDS011;7202;50.718;7.072;2023-03-11T02:04:17;10.35;;;1.58;;
14235;SDS011;7202;50.718;7.072;2023-03-11T02:06:47;5.35;;;1.30;;
14235;SDS011;7202;50.718;7.072;2023-03-11T02:09:18;5.95;;;1.60;;
14235;SDS011;7202;50.718;7.072;2023-03-11T02:11:51;4.38;;;1.38;;
14235;SDS011;7202;50.718;7.072;2023-03-11T02:14:20;4.90;;;1.35;;
14235;SDS011;7202;50.718;7.072;2023-03-11T02:16:52;5.50;;;1.40;;
14235;SDS011;7202;50.718;7.072;2023-03-11T02:19:23;3.45;;;1.30;;
14235;SDS011;7202;50.718;7.072;2023-03-11T02:21:57;5.95;;;1.50;;
14235;SDS011;7202;50.718;7.072;2023-03-11T02:24:29;5.70;;;1.65;;
14235;SDS011;7202;50.718;7.072;2023-03-11T02:27:08;7.90;;;2.10;;
14235;SDS011;7202;50.718;7.072;2023-03-11T02:29:39;3.05;;;1.10;;
14235;SDS011;7202;50.718;7.072;2023-03-11T02:32:10;6.65;;;1.40;;
14235;SDS011;7202;50.718;7.072;2023-03-11T02:34:42;5.03;;;1.40;;
14235;SDS011;7202;50.718;7.072;2023-03-11T02:37:13;7.78;;;1.30;;
14235;SDS011;7202;50.718;7.072;2023-03-11T02:39:52;2.72;;;1.30;;
14235;SDS011;7202;50.718;7.072;2023-03-11T02:42:23;6.93;;;1.48;;
14235;SDS011;7202;50.718;7.072;2023-03-11T02:44:57;8.13;;;1.60;;
14235;SDS011;7202;50.718;7.072;2023-03-11T02:47:29;5.97;;;1.38;;
14235;SDS011;7202;50.718;7.072;2023-03-11T02:49:59;9.27;;;1.80;;
14235;SDS011;7202;50.718;7.072;2023-03-11T02:52:29;6.57;;;1.70;;
14235;SDS011;7202;50.718;7.072;2023-03-11T02:55:01;8.82;;;2.00;;
14235;SDS011;7202;50.718;7.072;2023-03-11T02:57:31;6.97;;;2.22;;
14235;SDS011;7202;50.718;7.072;2023-03-11T03:00:00;6.72;;;1.63;;
14235;SDS011;7202;50.718;7.072;2023-03-11T03:02:37;3.17;;;1.25;;
14235;SDS011;7202;50.718;7.072;2023-03-11T03:05:06;10.73;;;1.70;;
14235;SDS011;7202;50.718;7.072;2023-03-11T03:07:36;8.07;;;1.60;;
14235;SDS011;7202;50.718;7.072;2023-03-11T03:10:05;6.85;;;1.40;;
14235;SDS011;7202;50.718;7.072;2023-03-11T03:12:36;3.28;;;1.33;;
14235;SDS011;7202;50.718;7.072;2023-03-11T03:15:05;10.73;;;1.88;;
14235;SDS011;7202;50.718;7.072;2023-03-11T03:17:35;4.00;;;1.30;;
14235;SDS011;7202;50.718;7.072;2023-03-11T03:20:06;4.78;;;1.25;;
14235;SDS011;7202;50.718;7.072;2023-03-11T03:22:41;6.10;;;1.42;;
14235;SDS011;7202;50.718;7.072;2023-03-11T03:25:12;4.78;;;1.67;;
14235;SDS011;7202;50.718;7.072;2023-03-11T03:27:43;4.18;;;1.20;;
14235;SDS011;7202;50.718;7.072;2023-03-11T03:30:13;5.72;;;1.45;;
14235;SDS011;7202;50.718;7.072;2023-03-11T03:32:43;7.65;;;1.63;;
14235;SDS011;7202;50.718;7.072;2023-03-11T03:35:15;6.90;;;1.35;;
14235;SDS011;7202;50.718;7.072;2023-03-11T03:38:02;10.77;;;1.30;;
14235;SDS011;7202;50.718;7.072;2023-03-11T03:40:31;4.68;;;1.13;;
14235;SDS011;7202;50.718;7.072;2023-03-11T03:43:05;7.13;;;1.27;;
14235;SDS011;7202;50.718;7.072;2023-03-11T03:45:35;4.72;;;1.27;;
14235;SDS011;7202;50.718;7.072;2023-03-11T03:48:04;5.00;;;1.20;;
14235;SDS011;7202;50.718;7.072;2023-03-11T03:50:38;2.30;;;1.40;;
14235;SDS011;7202;50.718;7.072;2023-03-11T03:53:09;3.55;;;1.17;;
14235;SDS011;7202;50.718;7.072;2023-03-11T03:55:38;4.57;;;1.20;;
14235;SDS011;7202;50.718;7.072;2023-03-11T03:58:09;8.45;;;1.90;;
14235;SDS011;7202;50.718;7.072;2023-03-11T04:00:38;5.15;;;1.23;;
14235;SDS011;7202;50.718;7.072;2023-03-11T04:03:07;4.78;;;1.80;;
14235;SDS011;7202;50.718;7.072;2023-03-11T04:05:51;10.02;;;1.27;;
14235;SDS011;7202;50.718;7.072;2023-03-11T04:08:20;5.25;;;1.35;;
14235;SDS011;7202;50.718;7.072;2023-03-11T04:10:54;3.42;;;1.50;;
14235;SDS011;7202;50.718;7.072;2023-03-11T04:13:26;3.33;;;1.40;;
14235;SDS011;7202;50.718;7.072;2023-03-11T04:15:55;5.30;;;1.52;;
14235;SDS011;7202;50.718;7.072;2023-03-11T04:18:24;6.53;;;1.90;;
14235;SDS011;7202;50.718;7.072;2023-03-11T04:20:53;9.48;;;2.03;;
14235;SDS011;7202;50.718;7.072;2023-03-11T04:23:22;4.10;;;1.60;;
14235;SDS011;7202;50.718;7.072;2023-03-11T04:25:51;4.78;;;1.40;;
14235;SDS011;7202;50.718;7.072;2023-03-11T04:28:20;5.57;;;1.77;;
14235;SDS011;7202;50.718;7.072;2023-03-11T04:30:50;6.72;;;1.85;;
14235;SDS011;7202;50.718;7.072;2023-03-11T04:33:19;4.45;;;1.60;;
14235;SDS011;7202;50.718;7.072;2023-03-11T04:35:48;6.35;;;1.60;;
14235;SDS011;7202;50.718;7.072;2023-03-11T04:38:18;8.98;;;1.98;;
14235;SDS011;7202;50.718;7.072;2023-03-11T04:40:47;3.88;;;1.52;;
14235;SDS011;7202;50.718;7.072;2023-03-11T04:43:16;4.75;;;1.83;;
14235;SDS011;7202;50.718;7.072;2023-03-11T04:45:45;6.28;;;2.08;;
14235;SDS011;7202;50.718;7.072;2023-03-11T04:48:19;5.40;;;1.50;;
14235;SDS011;7202;50.718;7.072;2023-03-11T04:50:48;5.93;;;1.55;;
14235;SDS011;7202;50.718;7.072;2023-03-11T04:53:17;7.18;;;2.55;;
14235;SDS011;7202;50.718;7.072;2023-03-11T04:55:46;7.82;;;1.90;;
14235;SDS011;7202;50.718;7.072;2023-03-11T04:58:15;4.90;;;1.92;;
14235;SDS011;7202;50.718;7.072;2023-03-11T05:00:45;6.97;;;2.10;;
14235;SDS011;7202;50.718;7.072;2023-03-11T05:03:16;3.30;;;1.50;;
14235;SDS011;7202;50.718;7.072;2023-03-11T05:05:45;6.75;;;1.70;;
14235;SDS011;7202;50.718;7.072;2023-03-11T05:08:14;3.60;;;1.55;;
14235;SDS011;7202;50.718;7.072;2023-03-11T05:10:43;6.03;;;1.75;;
14235;SDS011;7202;50.718;7.072;2023-03-11T05:13:12;2.97;;;1.70;;
14235;SDS011;7202;50.718;7.072;2023-03-11T05:15:41;4.90;;;1.83;;
14235;SDS011;7202;50.718;7.072;2023-03-11T05:18:11;5.85;;;1.83;;
14235;SDS011;7202;50.718;7.072;2023-03-11T05:20:42;7.20;;;1.83;;
14235;SDS011;7202;50.718;7.072;2023-03-11T05:23:12;4.43;;;1.70;;
14235;SDS011;7202;50.718;7.072;2023-03-11T05:25:41;3.47;;;1.90;;
14235;SDS011;7202;50.718;7.072;2023-03-11T05:28:10;4.35;;;2.05;;
14235;SDS011;7202;50.718;7.072;2023-03-11T05:30:44;5.32;;;1.70;;
14235;SDS011;7202;50.718;7.072;2023-03-11T05:33:13;4.90;;;1.85;;
14235;SDS011;7202;50.718;7.072;2023-03-11T05:35:43;4.05;;;1.90;;
14235;SDS011;7202;50.718;7.072;2023-03-11T05:38:12;7.07;;;1.90;;
14235;SDS011;7202;50.718;7.072;2023-03-11T05:40:41;8.60;;;1.92;;
14235;SDS011;7202;50.718;7.072;2023-03-11T05:43:10;7.28;;;2.20;;
14235;SDS011;7202;50.718;7.072;2023-03-11T05:45:42;3.95;;;2.35;;
14235;SDS011;7202;50.718;7.072;2023-03-11T05:48:10;5.40;;;2.10;;
14235;SDS011;7202;50.718;7.072;2023-03-11T05:50:39;6.20;;;1.90;;
14235;SDS011;7202;50.718;7.072;2023-03-11T05:53:09;7.97;;;2.00;;
14235;SDS011;7202;50.718;7.072;2023-03-11T05:55:38;4.60;;;1.90;;
14235;SDS011;7202;50.718;7.072;2023-03-11T05:58:07;5.00;;;1.80;;
14235;SDS011;7202;50.718;7.072;2023-03-11T06:00:36;3.85;;;1.80;;
14235;SDS011;7202;50.718;7.072;2023-03-11T06:03:05;5.75;;;1.77;;
14235;SDS011;7202;50.718;7.072;2023-03-11T06:05:33;4.35;;;1.48;;
14235;SDS011;7202;50.718;7.072;2023-03-11T06:08:02;6.13;;;1.83;;
14235;SDS011;7202;50.718;7.072;2023-03-11T06:10:33;5.35;;;2.28;;
14235;SDS011;7202;50.718;7.072;2023-03-11T06:13:01;6.93;;;2.15;;
14235;SDS011;7202;50.718;7.072;2023-03-11T06:15:35;6.15;;;2.10;;
14235;SDS011;7202;50.718;7.072;2023-03-11T06:18:05;4.35;;;1.63;;
14235;SDS011;7202;50.718;7.072;2023-03-11T06:20:34;13.27;;;3.10;;
14235;SDS011;7202;50.718;7.072;2023-03-11T06:23:04;7.63;;;1.92;;
14235;SDS011;7202;50.718;7.072;2023-03-11T06:25:34;9.70;;;2.00;;
14235;SDS011;7202;50.718;7.072;2023-03-11T06:28:03;8.23;;;2.08;;
14235;SDS011;7202;50.718;7.072;2023-03-11T06:30:32;6.38;;;1.95;;
14235;SDS011;7202;50.718;7.072;2023-03-11T06:33:07;5.05;;;1.90;;
14235;SDS011;7202;50.718;7.072;2023-03-11T06:35:36;3.65;;;1.55;;
14235;SDS011;7202;50.718;7.072;2023-03-11T06:38:04;8.93;;;2.75;;
14235;SDS011;7202;50.718;7.072;2023-03-11T06:40:35;3.88;;;1.52;;
14235;SDS011;7202;50.718;7.072;2023-03-11T06:43:04;6.40;;;2.10;;
14235;SDS011;7202;50.718;7.072;2023-03-11T06:45:36;6.82;;;2.00;;
14235;SDS011;7202;50.718;7.072;2023-03-11T06:48:05;6.20;;;1.98;;
14235;SDS011;7202;50.718;7.072;2023-03-11T06:50:35;6.63;;;2.00;;
14235;SDS011;7202;50.718;7.072;2023-03-11T06:53:04;5.78;;;1.90;;
14235;SDS011;7202;50.718;7.072;2023-03-11T06:55:36;8.10;;;2.50;;
14235;SDS011;7202;50.718;7.072;2023-03-11T06:58:04;6.53;;;1.88;;
14235;SDS011;7202;50.718;7.072;2023-03-11T07:00:33;4.90;;;1.73;;
14235;SDS011;7202;50.718;7.072;2023-03-11T07:03:02;7.80;;;2.10;;
14235;SDS011;7202;50.718;7.072;2023-03-11T07:05:31;8.18;;;2.13;;
14235;SDS011;7202;50.718;7.072;2023-03-11T07:08:04;7.90;;;2.13;;
14235;SDS011;7202;50.718;7.072;2023-03-11T07:10:33;8.15;;;2.13;;
14235;SDS011;7202;50.718;7.072;2023-03-11T07:13:03;9.82;;;2.50;;
14235;SDS011;7202;50.718;7.072;2023-03-11T07:15:32;13.52;;;2.55;;
14235;SDS011;7202;50.718;7.072;2023-03-11T07:18:01;5.65;;;2.00;;
14235;SDS011;7202;50.718;7.072;2023-03-11T07:20:30;5.38;;;2.05;;
14235;SDS011;7202;50.718;7.072;2023-03-11T07:22:58;3.75;;;1.80;;
14235;SDS011;7202;50.718;7.072;2023-03-11T07:25:27;6.93;;;2.20;;
14235;SDS011;7202;50.718;7.072;2023-03-11T07:27:55;4.45;;;1.90;;
14235;SDS011;7202;50.718;7.072;2023-03-11T07:30:25;9.88;;;2.53;;
14235;SDS011;7202;50.718;7.072;2023-03-11T07:32:54;5.15;;;2.28;;
14235;SDS011;7202;50.718;7.072;2023-03-11T07:35:24;6.47;;;2.10;;
14235;SDS011;7202;50.718;7.072;2023-03-11T07:37:52;9.48;;;2.45;;
14235;SDS011;7202;50.718;7.072;2023-03-11T07:40:21;4.70;;;2.25;;
14235;SDS011;7202;50.718;7.072;2023-03-11T07:42:50;9.43;;;2.63;;
14235;SDS011;7202;50.718;7.072;2023-03-11T07:45:20;5.20;;;2.15;;
14235;SDS011;7202;50.718;7.072;2023-03-11T07:47:50;5.53;;;2.20;;
14235;SDS011;7202;50.718;7.072;2023-03-11T07:50:18;3.80;;;2.10;;
14235;SDS011;7202;50.718;7.072;2023-03-11T07:52:48;13.70;;;2.80;;
14235;SDS011;7202;50.718;7.072;2023-03-11T07:55:17;6.40;;;2.55;;
14235;SDS011;7202;50.718;7.072;2023-03-11T07:57:46;4.53;;;1.92;;
14235;SDS011;7202;50.718;7.072;2023-03-11T08:00:17;8.60;;;2.33;;
14235;SDS011;7202;50.718;7.072;2023-03-11T08:02:47;6.75;;;2.33;;
14235;SDS011;7202;50.718;7.072;2023-03-11T08:05:17;8.07;;;2.45;;
14235;SDS011;7202;50.718;7.072;2023-03-11T08:07:46;4.00;;;2.10;;
14235;SDS011;7202;50.718;7.072;2023-03-11T08:10:15;8.05;;;2.63;;
14235;SDS011;7202;50.718;7.072;2023-03-11T08:12:44;12.32;;;3.05;;
14235;SDS011;7202;50.718;7.072;2023-03-11T08:15:12;3.25;;;2.30;;
14235;SDS011;7202;50.718;7.072;2023-03-11T08:17:41;4.93;;;2.38;;
14235;SDS011;7202;50.718;7.072;2023-03-11T08:20:10;7.13;;;2.33;;
14235;SDS011;7202;50.718;7.072;2023-03-11T08:22:41;6.65;;;2.28;;
14235;SDS011;7202;50.718;7.072;2023-03-11T08:25:24;7.32;;;2.40;;
14235;SDS011;7202;50.718;7.072;2023-03-11T08:27:53;7.07;;;2.35;;
14235;SDS011;7202;50.718;7.072;2023-03-11T08:30:22;3.08;;;2.38;;
14235;SDS011;7202;50.718;7.072;2023-03-11T08:32:51;5.25;;;2.10;;
14235;SDS011;7202;50.718;7.072;2023-03-11T08:35:19;5.88;;;2.22;;
14235;SDS011;7202;50.718;7.072;2023-03-11T08:37:50;7.60;;;2.00;;
14235;SDS011;7202;50.718;7.072;2023-03-11T08:40:19;6.10;;;2.38;;
14235;SDS011;7202;50.718;7.072;2023-03-11T08:42:47;12.68;;;2.15;;
14235;SDS011;7202;50.718;7.072;2023-03-11T08:45:16;6.50;;;2.28;;
14235;SDS011;7202;50.718;7.072;2023-03-11T08:47:45;7.18;;;2.28;;
14235;SDS011;7202;50.718;7.072;2023-03-11T08:50:14;6.25;;;2.20;;
14235;SDS011;7202;50.718;7.072;2023-03-11T08:52:44;5.13;;;1.90;;
14235;SDS011;7202;50.718;7.072;2023-03-11T08:55:15;3.95;;;1.95;;
14235;SDS011;7202;50.718;7.072;2023-03-11T08:57:50;6.32;;;2.65;;
14235;SDS011;7202;50.718;7.072;2023-03-11T09:00:19;8.70;;;2.42;;
14235;SDS011;7202;50.718;7.072;2023-03-11T09:02:49;4.18;;;2.00;;
14235;SDS011;7202;50.718;7.072;2023-03-11T09:05:19;8.90;;;2.20;;
14235;SDS011;7202;50.718;7.072;2023-03-11T09:07:48;6.40;;;2.35;;
14235;SDS011;7202;50.718;7.072;2023-03-11T09:10:19;4.28;;;2.22;;
14235;SDS011;7202;50.718;7.072;2023-03-11T09:12:47;7.75;;;2.60;;
14235;SDS011;7202;50.718;7.072;2023-03-11T09:15:16;6.82;;;2.50;;
14235;SDS011;7202;50.718;7.072;2023-03-11T09:17:45;7.38;;;2.28;;
14235;SDS011;7202;50.718;7.072;2023-03-11T09:20:14;9.60;;;2.28;;
14235;SDS011;7202;50.718;7.072;2023-03-11T09:22:43;7.72;;;2.63;;
14235;SDS011;7202;50.718;7.072;2023-03-11T09:25:12;11.52;;;2.58;;
14235;SDS011;7202;50.718;7.072;2023-03-11T09:27:42;6.60;;;2.08;;
14235;SDS011;7202;50.718;7.072;2023-03-11T09:30:11;4.50;;;2.00;;
14235;SDS011;7202;50.718;7.072;2023-03-11T09:32:40;3.88;;;2.00;;
14235;SDS011;7202;50.718;7.072;2023-03-11T09:35:09;8.73;;;1.95;;
14235;SDS011;7202;50.718;7.072;2023-03-11T09:37:38;5.15;;;2.63;;
14235;SDS011;7202;50.718;7.072;2023-03-11T09:40:07;5.32;;;2.05;;
14235;SDS011;7202;50.718;7.072;2023-03-11T09:42:40;9.77;;;2.75;;
14235;SDS011;7202;50.718;7.072;2023-03-11T09:45:15;5.20;;;2.38;;
14235;SDS011;7202;50.718;7.072;2023-03-11T09:47:58;8.05;;;2.25;;
14235;SDS011;7202;50.718;7.072;2023-03-11T09:50:32;7.20;;;2.40;;
14235;SDS011;7202;50.718;7.072;2023-03-11T09:53:02;5.28;;;2.08;;
14235;SDS011;7202;50.718;7.072;2023-03-11T09:55:41;5.82;;;1.77;;
14235;SDS011;7202;50.718;7.072;2023-03-11T09:58:15;5.13;;;2.25;;
14235;SDS011;7202;50.718;7.072;2023-03-11T10:00:48;5.45;;;2.50;;
14235;SDS011;7202;50.718;7.072;2023-03-11T10:03:25;7.53;;;4.22;;
14235;SDS011;7202;50.718;7.072;2023-03-11T10:06:07;8.65;;;4.18;;
14235;SDS011;7202;50.718;7.072;2023-03-11T10:08:43;7.18;;;3.15;;
14235;SDS011;7202;50.718;7.072;2023-03-11T10:11:36;4.72;;;1.73;;
14235;SDS011;7202;50.718;7.072;2023-03-11T10:14:27;6.85;;;1.80;;
14235;SDS011;7202;50.718;7.072;2023-03-11T10:17:08;3.83;;;0.98;;
14235;SDS011;7202;50.718;7.072;2023-03-11T10:19:48;4.35;;;1.40;;
14235;SDS011;7202;50.718;7.072;2023-03-11T10:22:23;4.07;;;1.30;;
14235;SDS011;7202;50.718;7.072;2023-03-11T10:25:01;1.83;;;0.95;;
14235;SDS011;7202;50.718;7.072;2023-03-11T10:27:36;3.97;;;1.35;;
14235;SDS011;7202;50.718;7.072;2023-03-11T10:30:12;8.52;;;1.75;;
14235;SDS011;7202;50.718;7.072;2023-03-11T10:32:48;3.78;;;1.42;;
14235;SDS011;7202;50.718;7.072;2023-03-11T10:35:22;2.97;;;1.17;;
14235;SDS011;7202;50.718;7.072;2023-03-11T10:37:55;9.85;;;1.55;;
14235;SDS011;7202;50.718;7.072;2023-03-11T10:40:29;3.85;;;1.42;;
14235;SDS011;7202;50.718;7.072;2023-03-11T10:43:00;4.78;;;1.60;;
14235;SDS011;7202;50.718;7.072;2023-03-11T10:45:35;2.83;;;1.40;;
14235;SDS011;7202;50.718;7.072;2023-03-11T10:48:09;3.85;;;1.58;;
14235;SDS011;7202;50.718;7.072;2023-03-11T10:50:42;5.32;;;1.30;;
14235;SDS011;7202;50.718;7.072;2023-03-11T10:53:16;6.63;;;1.50;;
14235;SDS011;7202;50.718;7.072;2023-03-11T10:55:47;5.05;;;1.75;;
14235;SDS011;7202;50.718;7.072;2023-03-11T10:58:17;3.88;;;1.90;;
14235;SDS011;7202;50.718;7.072;2023-03-11T11:01:00;4.78;;;1.15;;
14235;SDS011;7202;50.718;7.072;2023-03-11T11:03:30;7.93;;;1.38;;
14235;SDS011;7202;50.718;7.072;2023-03-11T11:06:02;5.45;;;1.80;;
14235;SDS011;7202;50.718;7.072;2023-03-11T11:08:32;4.07;;;1.52;;
14235;SDS011;7202;50.718;7.072;2023-03-11T11:11:02;4.43;;;1.40;;
14235;SDS011;7202;50.718;7.072;2023-03-11T11:13:31;4.43;;;1.65;;
14235;SDS011;7202;50.718;7.072;2023-03-11T11:16:03;4.25;;;1.60;;
14235;SDS011;7202;50.718;7.072;2023-03-11T11:18:40;3.78;;;1.55;;
14235;SDS011;7202;50.718;7.072;2023-03-11T11:21:14;4.85;;;1.38;;
14235;SDS011;7202;50.718;7.072;2023-03-11T11:23:45;5.25;;;1.98;;
14235;SDS011;7202;50.718;7.072;2023-03-11T11:26:19;3.80;;;1.77;;
14235;SDS011;7202;50.718;7.072;2023-03-11T11:29:03;4.63;;;1.35;;
14235;SDS011;7202;50.718;7.072;2023-03-11T11:31:36;1.98;;;1.20;;
14235;SDS011;7202;50.718;7.072;2023-03-11T11:34:19;2.95;;;1.35;;
14235;SDS011;7202;50.718;7.072;2023-03-11T11:36:55;4.20;;;1.70;;
14235;SDS011;7202;50.718;7.072;2023-03-11T11:39:25;4.93;;;1.73;;
14235;SDS011;7202;50.718;7.072;2023-03-11T11:41:57;5.93;;;1.70;;
14235;SDS011;7202;50.718;7.072;2023-03-11T11:44:30;4.05;;;1.40;;
14235;SDS011;7202;50.718;7.072;2023-03-11T11:47:05;1.90;;;1.02;;
14235;SDS011;7202;50.718;7.072;2023-03-11T11:49:39;3.53;;;1.35;;
14235;SDS011;7202;50.718;7.072;2023-03-11T11:52:16;4.20;;;1.40;;
14235;SDS011;7202;50.718;7.072;2023-03-11T11:54:49;4.75;;;1.25;;
14235;SDS011;7202;50.718;7.072;2023-03-11T11:57:21;5.70;;;1.63;;
14235;SDS011;7202;50.718;7.072;2023-03-11T11:59:50;3.33;;;1.60;;
14235;SDS011;7202;50.718;7.072;2023-03-11T12:02:26;8.75;;;1.50;;
14235;SDS011;7202;50.718;7.072;2023-03-11T12:05:06;4.70;;;1.40;;
14235;SDS011;7202;50.718;7.072;2023-03-11T12:07:41;3.42;;;1.52;;
14235;SDS011;7202;50.718;7.072;2023-03-11T12:10:24;4.28;;;1.30;;
14235;SDS011;7202;50.718;7.072;2023-03-11T12:13:09;3.95;;;1.42;;
14235;SDS011;7202;50.718;7.072;2023-03-11T12:15:48;2.20;;;1.38;;
14235;SDS011;7202;50.718;7.072;2023-03-11T12:18:22;1.85;;;1.10;;
14235;SDS011;7202;50.718;7.072;2023-03-11T12:20:56;3.00;;;1.50;;
14235;SDS011;7202;50.718;7.072;2023-03-11T12:23:32;2.13;;;1.20;;
14235;SDS011;7202;50.718;7.072;2023-03-11T12:26:12;3.05;;;1.05;;
14235;SDS011;7202;50.718;7.072;2023-03-11T12:28:46;2.60;;;1.33;;
14235;SDS011;7202;50.718;7.072;2023-03-11T12:31:18;2.83;;;1.27;;
14235;SDS011;7202;50.718;7.072;2023-03-11T12:33:53;3.65;;;1.20;;
14235;SDS011;7202;50.718;7.072;2023-03-11T12:36:25;2.17;;;1.10;;
14235;SDS011;7202;50.718;7.072;2023-03-11T12:38:58;2.97;;;0.90;;
14235;SDS011;7202;50.718;7.072;2023-03-11T12:41:30;2.67;;;1.20;;
14235;SDS011;7202;50.718;7.072;2023-03-11T12:44:03;3.45;;;1.38;;
14235;SDS011;7202;50.718;7.072;2023-03-11T12:53:08;1.48;;;1.00;;
14235;SDS011;7202;50.718;7.072;2023-03-11T12:55:55;5.60;;;1.05;;
14235;SDS011;7202;50.718;7.072;2023-03-11T13:04:28;8.63;;;1.70;;
14235;SDS011;7202;50.718;7.072;2023-03-11T13:07:17;2.72;;;1.17;;
14235;SDS011;7202;50.718;7.072;2023-03-11T13:10:10;5.53;;;1.38;;
14235;SDS011;7202;50.718;7.072;2023-03-11T13:12:42;2.55;;;1.05;;
14235;SDS011;7202;50.718;7.072;2023-03-11T13:15:25;2.72;;;1.27;;
14235;SDS011;7202;50.718;7.072;2023-03-11T13:17:58;4.95;;;1.20;;
14235;SDS011;7202;50.718;7.072;2023-03-11T13:20:48;4.43;;;1.50;;
14235;SDS011;7202;50.718;7.072;2023-03-11T13:23:25;4.63;;;1.30;;
14235;SDS011;7202;50.718;7.072;2023-03-11T13:29:18;3.30;;;1.40;;
14235;SDS011;7202;50.718;7.072;2023-03-11T13:35:09;2.67;;;1.52;;
14235;SDS011;7202;50.718;7.072;2023-03-11T13:37:50;4.95;;;1.25;;
14235;SDS011;7202;50.718;7.072;2023-03-11T13:40:42;2.42;;;1.25;;
14235;SDS011;7202;50.718;7.072;2023-03-11T13:43:13;2.72;;;1.30;;
14235;SDS011;7202;50.718;7.072;2023-03-11T13:45:46;6.90;;;1.48;;
14235;SDS011;7202;50.718;7.072;2023-03-11T13:48:20;3.33;;;1.17;;
14235;SDS011;7202;50.718;7.072;2023-03-11T13:50:54;2.30;;;1.20;;
14235;SDS011;7202;50.718;7.072;2023-03-11T13:53:27;4.85;;;1.40;;
14235;SDS011;7202;50.718;7.072;2023-03-11T13:56:00;2.20;;;1.20;;
14235;SDS011;7202;50.718;7.072;2023-03-11T13:58:29;4.97;;;1.48;;
14235;SDS011;7202;50.718;7.072;2023-03-11T14:00:58;2.95;;;1.33;;
14235;SDS011;7202;50.718;7.072;2023-03-11T14:03:30;3.92;;;1.30;;
14235;SDS011;7202;50.718;7.072;2023-03-11T14:06:07;4.35;;;1.30;;
14235;SDS011;7202;50.718;7.072;2023-03-11T14:08:39;5.20;;;1.30;;
14235;SDS011;7202;50.718;7.072;2023-03-11T14:11:15;3.85;;;1.40;;
14235;SDS011;7202;50.718;7.072;2023-03-11T14:13:44;1.90;;;1.10;;
14235;SDS011;7202;50.718;7.072;2023-03-11T14:16:16;2.95;;;1.13;;
14235;SDS011;7202;50.718;7.072;2023-03-11T14:19:01;2.08;;;1.00;;
14235;SDS011;7202;50.718;7.072;2023-03-11T14:21:34;3.95;;;1.40;;
14235;SDS011;7202;50.718;7.072;2023-03-11T14:24:03;5.13;;;1.40;;
14235;SDS011;7202;50.718;7.072;2023-03-11T14:26:34;4.15;;;1.52;;
14235;SDS011;7202;50.718;7.072;2023-03-11T14:29:06;4.13;;;1.90;;
14235;SDS011;7202;50.718;7.072;2023-03-11T14:31:37;4.68;;;1.25;;
14235;SDS011;7202;50.718;7.072;2023-03-11T14:34:13;1.55;;;1.02;;
14235;SDS011;7202;50.718;7.072;2023-03-11T14:36:45;2.30;;;1.38;;
14235;SDS011;7202;50.718;7.072;2023-03-11T14:39:24;5.05;;;2.08;;
14235;SDS011;7202;50.718;7.072;2023-03-11T14:42:00;2.55;;;1.60;;
14235;SDS011;7202;50.718;7.072;2023-03-11T14:44:32;4.80;;;1.55;;
14235;SDS011;7202;50.718;7.072;2023-03-11T14:47:06;6.03;;;1.83;;
14235;SDS011;7202;50.718;7.072;2023-03-11T14:49:38;3.13;;;1.63;;
14235;SDS011;7202;50.718;7.072;2023-03-11T14:52:12;3.95;;;1.40;;
14235;SDS011;7202;50.718;7.072;2023-03-11T14:54:45;4.32;;;1.63;;
14235;SDS011;7202;50.718;7.072;2023-03-11T14:57:20;3.45;;;1.48;;
14235;SDS011;7202;50.718;7.072;2023-03-11T14:59:51;3.72;;;2.13;;
14235;SDS011;7202;50.718;7.072;2023-03-11T15:02:26;5.20;;;1.75;;
14235;SDS011;7202;50.718;7.072;2023-03-11T15:05:01;3.83;;;1.73;;
14235;SDS011;7202;50.718;7.072;2023-03-11T15:07:36;4.93;;;1.52;;
14235;SDS011;7202;50.718;7.072;2023-03-11T15:10:06;3.35;;;1.20;;
14235;SDS011;7202;50.718;7.072;2023-03-11T15:12:38;2.55;;;1.15;;
14235;SDS011;7202;50.718;7.072;2023-03-11T15:15:19;3.55;;;1.67;;
14235;SDS011;7202;50.718;7.072;2023-03-11T15:17:53;4.05;;;1.52;;
14235;SDS011;7202;50.718;7.072;2023-03-11T15:20:27;4.13;;;1.63;;
14235;SDS011;7202;50.718;7.072;2023-03-11T15:22:58;5.95;;;1.60;;
14235;SDS011;7202;50.718;7.072;2023-03-11T15:25:29;3.97;;;1.45;;
14235;SDS011;7202;50.718;7.072;2023-03-11T15:28:14;3.47;;;1.67;;
14235;SDS011;7202;50.718;7.072;2023-03-11T15:30:50;3.13;;;1.70;;
14235;SDS011;7202;50.718;7.072;2023-03-11T15:33:38;5.80;;;1.77;;
14235;SDS011;7202;50.718;7.072;2023-03-11T15:39:10;2.63;;;1.67;;
14235;SDS011;7202;50.718;7.072;2023-03-11T15:41:41;4.85;;;1.75;;
14235;SDS011;7202;50.718;7.072;2023-03-11T15:44:21;3.10;;;1.92;;
14235;SDS011;7202;50.718;7.072;2023-03-11T15:46:53;1.42;;;1.20;;
14235;SDS011;7202;50.718;7.072;2023-03-11T15:49:22;5.28;;;1.63;;
14235;SDS011;7202;50.718;7.072;2023-03-11T15:51:51;1.73;;;1.40;;
14235;SDS011;7202;50.718;7.072;2023-03-11T15:54:19;3.65;;;1.60;;